createdAt,value
2017-09-09T00:01:29.696Z,12.83
2017-09-09T00:03:56.061Z,18.17
2017-09-09T00:06:22.759Z,14.43
2017-09-09T00:08:49.150Z,11.57
2017-09-09T00:11:15.473Z,13.80
2017-09-09T00:13:41.851Z,15.30
2017-09-09T00:16:09.003Z,10.47
2017-09-09T00:18:36.097Z,15.00
2017-09-09T00:21:03.289Z,19.20
2017-09-09T00:23:29.666Z,12.77
2017-09-09T00:25:56.013Z,12.23
2017-09-09T00:28:22.359Z,11.17
2017-09-09T00:30:48.742Z,9.97
2017-09-09T00:33:15.456Z,13.10
2017-09-09T00:35:42.594Z,22.83
2017-09-09T00:38:09.011Z,13.93
2017-09-09T00:40:35.408Z,16.73
2017-09-09T00:43:01.797Z,18.40
2017-09-09T00:45:28.896Z,14.03
2017-09-09T00:47:55.319Z,10.30
2017-09-09T00:50:21.689Z,12.67
2017-09-09T00:52:48.119Z,9.80
2017-09-09T00:55:14.500Z,10.73
2017-09-09T00:57:40.921Z,11.60
2017-09-09T01:00:07.332Z,17.77
2017-09-09T01:02:34.453Z,16.93
2017-09-09T01:05:00.813Z,9.77
2017-09-09T01:07:28.246Z,9.32
2017-09-09T01:09:54.678Z,13.90
2017-09-09T01:12:21.061Z,13.13
2017-09-09T01:14:47.453Z,9.35
2017-09-09T01:17:14.563Z,11.98
2017-09-09T01:19:40.947Z,14.10
2017-09-09T01:22:07.323Z,11.63
2017-09-09T01:24:34.025Z,14.83
2017-09-09T01:27:00.413Z,15.90
2017-09-09T01:29:26.818Z,16.20
2017-09-09T01:31:53.230Z,12.35
2017-09-09T01:34:19.602Z,12.43
2017-09-09T01:36:46.723Z,11.63
2017-09-09T01:39:13.094Z,21.97
2017-09-09T01:41:40.187Z,10.63
2017-09-09T01:44:06.587Z,11.43
2017-09-09T01:46:32.973Z,12.60
2017-09-09T01:48:59.475Z,12.10
2017-09-09T01:51:26.163Z,11.20
2017-09-09T01:53:53.278Z,11.38
2017-09-09T01:56:19.640Z,9.63
2017-09-09T01:58:46.747Z,7.10
2017-09-09T02:01:13.140Z,10.87
2017-09-09T02:03:39.500Z,10.75
2017-09-09T02:06:05.872Z,8.63
2017-09-09T02:08:32.227Z,9.13
2017-09-09T02:10:58.601Z,12.85
2017-09-09T02:13:25.279Z,8.05
2017-09-09T02:15:52.387Z,9.48
2017-09-09T02:18:18.760Z,10.02
2017-09-09T02:20:45.870Z,10.57
2017-09-09T02:23:12.248Z,14.87
2017-09-09T02:25:38.632Z,17.83
2017-09-09T02:28:04.968Z,14.77
2017-09-09T02:30:31.343Z,16.00
2017-09-09T02:32:57.739Z,7.90
2017-09-09T02:35:25.201Z,19.35
2017-09-09T02:37:52.330Z,10.55
2017-09-09T02:40:18.736Z,12.00
2017-09-09T02:42:45.117Z,14.25
2017-09-09T02:45:12.322Z,8.48
2017-09-09T02:54:24.275Z,10.40
2017-09-09T02:56:51.798Z,12.75
2017-09-09T02:59:18.153Z,12.25
2017-09-09T03:01:44.543Z,11.52
2017-09-09T03:04:10.948Z,9.57
2017-09-09T03:06:38.074Z,12.40
2017-09-09T03:09:04.486Z,12.15
2017-09-09T03:11:30.878Z,12.05
2017-09-09T03:13:57.235Z,15.02
2017-09-09T03:16:23.591Z,13.75
2017-09-09T03:18:50.325Z,9.18
2017-09-09T03:21:16.685Z,7.90
2017-09-09T03:23:43.053Z,10.48
2017-09-09T03:26:09.416Z,8.02
2017-09-09T03:28:36.534Z,12.40
2017-09-09T03:31:02.906Z,13.57
2017-09-09T03:33:29.263Z,13.50
2017-09-09T03:35:55.610Z,9.83
2017-09-09T03:38:21.993Z,12.37
2017-09-09T03:40:49.437Z,12.10
2017-09-09T03:43:15.791Z,12.83
2017-09-09T03:45:42.930Z,10.27
2017-09-09T03:48:10.124Z,9.50
2017-09-09T03:50:36.489Z,9.50
2017-09-09T03:53:02.893Z,9.80
2017-09-09T03:55:29.255Z,10.17
2017-09-09T03:57:55.641Z,12.50
2017-09-09T04:00:22.002Z,13.93
2017-09-09T04:02:48.758Z,8.13
2017-09-09T04:05:15.184Z,10.23
2017-09-09T04:07:41.523Z,10.67
2017-09-09T04:10:07.939Z,9.70
2017-09-09T04:12:35.082Z,10.50
2017-09-09T04:15:01.444Z,8.30
2017-09-09T04:17:28.551Z,9.27
2017-09-09T04:19:54.933Z,8.37
2017-09-09T04:22:22.032Z,10.00
2017-09-09T04:24:48.687Z,9.93
2017-09-09T04:27:15.028Z,9.50
2017-09-09T04:29:42.133Z,9.00
2017-09-09T04:32:08.509Z,10.90
2017-09-09T04:34:35.583Z,9.43
2017-09-09T04:37:01.962Z,17.67
2017-09-09T04:39:28.349Z,9.33
2017-09-09T04:41:54.760Z,10.67
2017-09-09T04:44:21.141Z,16.00
2017-09-09T04:46:47.500Z,12.53
2017-09-09T04:49:14.651Z,10.37
2017-09-09T04:51:41.378Z,10.60
2017-09-09T04:54:07.782Z,8.80
2017-09-09T04:56:34.170Z,9.83
2017-09-09T04:59:00.529Z,11.33
2017-09-09T05:01:26.897Z,11.30
2017-09-09T05:03:53.321Z,15.00
2017-09-09T05:06:20.409Z,13.13
2017-09-09T05:08:46.849Z,12.80
2017-09-09T05:11:13.236Z,8.50
2017-09-09T05:13:39.653Z,9.93
2017-09-09T05:16:06.091Z,7.85
2017-09-09T05:18:32.453Z,11.13
2017-09-09T05:20:59.563Z,18.83
2017-09-09T05:23:25.928Z,12.90
2017-09-09T05:25:52.668Z,13.52
2017-09-09T05:28:19.051Z,9.52
2017-09-09T05:30:45.470Z,12.27
2017-09-09T05:33:11.873Z,10.47
2017-09-09T05:35:38.261Z,12.10
2017-09-09T05:38:04.696Z,9.65
2017-09-09T05:40:31.825Z,12.50
2017-09-09T05:42:58.965Z,11.80
2017-09-09T05:45:25.344Z,12.80
2017-09-09T05:47:52.885Z,11.70
2017-09-09T05:50:19.255Z,16.27
2017-09-09T05:52:45.664Z,8.27
2017-09-09T05:55:12.051Z,14.10
2017-09-09T05:57:38.437Z,14.70
2017-09-09T06:00:04.847Z,12.03
2017-09-09T06:02:31.216Z,15.60
2017-09-09T06:04:57.616Z,11.90
2017-09-09T06:07:23.998Z,12.00
2017-09-09T06:09:50.366Z,17.23
2017-09-09T06:12:17.462Z,19.87
2017-09-09T06:14:44.153Z,19.60
2017-09-09T06:17:11.250Z,13.70
2017-09-09T06:19:37.615Z,14.30
2017-09-09T06:22:04.739Z,16.07
2017-09-09T06:24:31.084Z,15.23
2017-09-09T06:26:57.444Z,21.37
2017-09-09T06:29:23.824Z,13.87
2017-09-09T06:31:50.237Z,17.23
2017-09-09T06:34:16.649Z,15.20
2017-09-09T06:36:43.358Z,16.97
2017-09-09T06:39:09.709Z,18.53
2017-09-09T06:41:36.057Z,22.80
2017-09-09T06:44:02.486Z,15.67
2017-09-09T06:46:28.890Z,14.07
2017-09-09T06:48:55.354Z,16.23
2017-09-09T06:51:21.741Z,17.70
2017-09-09T06:53:48.164Z,16.43
2017-09-09T06:56:14.509Z,20.10
2017-09-09T06:58:41.919Z,13.57
2017-09-09T07:01:08.318Z,15.80
2017-09-09T07:03:34.671Z,14.80
2017-09-09T07:06:01.082Z,12.10
2017-09-09T07:08:27.490Z,15.43
2017-09-09T07:10:53.911Z,16.00
2017-09-09T07:13:21.040Z,13.73
2017-09-09T07:15:48.169Z,17.80
2017-09-09T07:18:14.547Z,18.10
2017-09-09T07:20:40.949Z,18.00
2017-09-09T07:23:07.324Z,12.00
2017-09-09T07:25:34.032Z,14.00
2017-09-09T07:28:01.166Z,15.03
2017-09-09T07:30:28.321Z,15.93
2017-09-09T07:32:55.460Z,16.20
2017-09-09T07:35:22.596Z,14.63
2017-09-09T07:37:48.947Z,15.10
2017-09-09T07:40:16.069Z,14.23
2017-09-09T07:42:42.483Z,16.57
2017-09-09T07:45:09.626Z,14.67
2017-09-09T07:47:36.038Z,12.67
2017-09-09T07:50:02.432Z,11.80
2017-09-09T07:52:29.880Z,15.00
2017-09-09T07:54:56.603Z,14.00
2017-09-09T07:57:22.976Z,13.60
2017-09-09T07:59:49.376Z,15.90
2017-09-09T08:02:16.498Z,14.83
2017-09-09T08:04:42.871Z,13.73
2017-09-09T08:07:09.963Z,15.60
2017-09-09T08:09:36.469Z,16.23
2017-09-09T08:12:02.838Z,22.17
2017-09-09T08:14:29.959Z,12.63
2017-09-09T08:16:56.347Z,12.83
2017-09-09T08:19:23.462Z,13.60
2017-09-09T08:21:49.850Z,16.90
2017-09-09T08:24:16.542Z,11.33
2017-09-09T08:26:42.931Z,15.47
2017-09-09T08:29:09.258Z,15.70
2017-09-09T08:31:35.642Z,22.20
2017-09-09T08:34:02.814Z,13.83
2017-09-09T08:36:29.936Z,14.13
2017-09-09T08:38:57.041Z,18.73
2017-09-09T08:41:23.434Z,12.60
2017-09-09T08:43:50.555Z,12.13
2017-09-09T08:46:16.943Z,12.87
2017-09-09T08:48:43.357Z,13.87
2017-09-09T08:51:09.713Z,10.60
2017-09-09T08:53:36.094Z,12.27
2017-09-09T08:56:03.187Z,14.10
2017-09-09T08:58:29.565Z,10.37
2017-09-09T09:00:56.656Z,11.43
2017-09-09T09:03:23.326Z,14.27
2017-09-09T09:05:49.679Z,14.60
2017-09-09T09:08:16.778Z,12.33
2017-09-09T09:10:43.203Z,10.70
2017-09-09T09:13:16.530Z,11.63
2017-09-09T09:15:42.923Z,14.60
2017-09-09T09:18:09.262Z,12.07
2017-09-09T09:20:35.628Z,14.23
2017-09-09T09:25:35.027Z,13.60
2017-09-09T09:28:01.415Z,15.00
2017-09-09T09:30:28.219Z,18.27
2017-09-09T09:32:54.600Z,12.03
2017-09-09T09:35:20.956Z,9.60
2017-09-09T09:37:47.345Z,13.23
2017-09-09T09:40:13.773Z,17.37
2017-09-09T09:42:40.160Z,14.03
2017-09-09T09:45:06.528Z,12.07
2017-09-09T09:47:33.019Z,12.63
2017-09-09T09:49:59.390Z,16.10
2017-09-09T09:52:25.816Z,14.13
2017-09-09T09:54:52.181Z,11.87
2017-09-09T09:57:18.862Z,12.30
2017-09-09T09:59:46.016Z,13.10
2017-09-09T10:02:13.156Z,14.40
2017-09-09T10:04:39.546Z,18.07
2017-09-09T10:07:05.929Z,14.40
2017-09-09T10:09:33.379Z,18.93
2017-09-09T10:12:00.503Z,12.97
2017-09-09T10:14:26.901Z,12.20
2017-09-09T10:16:53.275Z,16.80
2017-09-09T10:19:19.632Z,12.53
2017-09-09T10:21:46.034Z,15.10
2017-09-09T10:24:16.633Z,14.30
2017-09-09T10:26:43.063Z,12.87
2017-09-09T10:29:09.450Z,16.53
2017-09-09T10:31:36.591Z,15.10
2017-09-09T10:34:03.724Z,16.97
2017-09-09T10:36:30.141Z,19.67
2017-09-09T10:38:57.291Z,13.03
2017-09-09T10:41:24.040Z,13.57
2017-09-09T10:43:51.175Z,20.67
2017-09-09T10:46:17.585Z,18.53
2017-09-09T10:48:44.016Z,16.10
2017-09-09T10:51:10.419Z,14.23
2017-09-09T10:53:36.836Z,13.30
2017-09-09T10:56:03.936Z,15.13
2017-09-09T10:58:30.302Z,12.57
2017-09-09T11:00:56.708Z,19.33
2017-09-09T11:03:23.869Z,13.50
2017-09-09T11:05:51.009Z,16.50
2017-09-09T11:08:17.361Z,19.53
2017-09-09T11:10:43.755Z,13.50
2017-09-09T11:13:10.109Z,16.53
2017-09-09T11:15:37.229Z,15.33
2017-09-09T11:18:03.604Z,16.20
2017-09-09T11:20:30.321Z,13.87
2017-09-09T11:22:56.709Z,19.47
2017-09-09T11:25:23.069Z,15.97
2017-09-09T11:27:49.438Z,17.20
2017-09-09T11:30:15.802Z,15.63
2017-09-09T11:32:42.204Z,15.10
2017-09-09T11:35:08.574Z,16.30
2017-09-09T11:37:34.980Z,15.13
2017-09-09T11:40:01.340Z,14.33
2017-09-09T11:42:27.811Z,16.30
2017-09-09T11:44:54.175Z,13.97
2017-09-09T11:47:20.858Z,17.60
2017-09-09T11:49:47.953Z,18.73
2017-09-09T11:52:14.319Z,13.70
2017-09-09T11:54:40.690Z,20.70
2017-09-09T11:57:07.058Z,18.30
2017-09-09T11:59:33.426Z,19.37
2017-09-09T12:02:00.592Z,16.50
2017-09-09T12:04:26.982Z,16.67
2017-09-09T12:06:53.326Z,19.27
2017-09-09T12:09:20.652Z,21.90
2017-09-09T12:11:47.023Z,15.93
2017-09-09T12:14:14.459Z,15.00
2017-09-09T12:16:40.790Z,19.90
2017-09-09T12:19:07.147Z,21.27
2017-09-09T12:21:33.546Z,17.77
2017-09-09T12:23:59.920Z,15.40
2017-09-09T12:26:26.273Z,14.70
2017-09-09T12:28:52.656Z,14.57
2017-09-09T12:31:19.790Z,14.80
2017-09-09T12:33:46.890Z,17.90
2017-09-09T12:36:13.258Z,18.53
2017-09-09T12:38:39.621Z,14.90
2017-09-09T12:41:06.329Z,12.77
2017-09-09T12:43:32.692Z,11.50
2017-09-09T12:45:59.794Z,10.80
2017-09-09T12:48:27.009Z,13.23
2017-09-09T12:50:53.361Z,9.43
2017-09-09T12:53:19.749Z,7.70
2017-09-09T12:55:46.115Z,8.63
2017-09-09T12:58:12.474Z,9.60
2017-09-09T13:00:38.839Z,11.67
2017-09-09T13:03:06.282Z,10.87
2017-09-09T13:05:32.661Z,11.33
2017-09-09T13:07:59.008Z,15.93
2017-09-09T13:10:25.454Z,7.90
2017-09-09T13:12:51.807Z,11.00
2017-09-09T13:15:18.989Z,9.60
2017-09-09T13:17:45.342Z,10.27
2017-09-09T13:20:11.723Z,6.90
2017-09-09T13:22:38.069Z,14.07
2017-09-09T13:25:04.450Z,10.00
2017-09-09T13:27:30.797Z,10.37
2017-09-09T13:29:57.510Z,4.97
2017-09-09T13:32:23.868Z,6.07
2017-09-09T13:34:50.237Z,7.20
2017-09-09T13:37:16.638Z,7.47
2017-09-09T13:39:43.034Z,8.60
2017-09-09T13:42:10.168Z,8.53
2017-09-09T13:44:36.555Z,5.97
2017-09-09T13:47:03.231Z,7.17
2017-09-09T13:49:29.705Z,5.67
2017-09-09T13:51:56.779Z,10.40
2017-09-09T13:54:24.197Z,4.33
2017-09-09T13:56:51.303Z,6.50
2017-09-09T13:59:17.686Z,5.27
2017-09-09T14:01:44.776Z,5.60
2017-09-09T14:04:11.431Z,5.63
2017-09-09T14:06:37.859Z,5.70
2017-09-09T14:09:04.213Z,2.97
2017-09-09T14:11:30.578Z,7.83
2017-09-09T14:13:56.920Z,6.03
2017-09-09T14:16:23.305Z,4.50
2017-09-09T14:18:50.406Z,4.50
2017-09-09T14:21:16.820Z,6.20
2017-09-09T14:23:43.226Z,5.07
2017-09-09T14:26:09.644Z,6.07
2017-09-09T14:28:36.016Z,5.23
2017-09-09T14:31:02.693Z,5.10
2017-09-09T14:33:29.037Z,4.27
2017-09-09T14:35:56.151Z,4.50
2017-09-09T14:38:22.490Z,5.50
2017-09-09T14:40:48.834Z,6.30
2017-09-09T14:43:16.031Z,3.37
2017-09-09T14:45:42.419Z,9.50
2017-09-09T14:48:09.592Z,4.10
2017-09-09T14:50:35.954Z,3.37
2017-09-09T14:53:02.358Z,3.10
2017-09-09T14:55:28.785Z,2.87
2017-09-09T14:57:55.505Z,2.87
2017-09-09T15:00:21.859Z,3.07
2017-09-09T15:02:48.234Z,12.17
2017-09-09T15:05:14.592Z,5.27
2017-09-09T15:07:41.677Z,5.20
2017-09-09T15:10:08.040Z,5.97
2017-09-09T15:12:34.409Z,4.30
2017-09-09T15:15:00.840Z,3.33
2017-09-09T15:17:27.961Z,2.50
2017-09-09T15:19:54.341Z,5.50
2017-09-09T15:22:20.692Z,4.60
2017-09-09T15:24:47.363Z,4.70
2017-09-09T15:27:14.487Z,3.53
2017-09-09T15:29:40.851Z,5.30
2017-09-09T15:32:07.997Z,8.33
2017-09-09T15:34:35.132Z,9.23
2017-09-09T15:37:02.262Z,5.53
2017-09-09T15:39:28.613Z,2.40
2017-09-09T15:41:55.021Z,2.63
2017-09-09T15:44:21.392Z,3.20
2017-09-09T15:46:47.823Z,1.87
2017-09-09T15:49:14.974Z,3.73
2017-09-09T15:51:41.599Z,1.93
2017-09-09T15:54:08.721Z,1.50
2017-09-09T15:56:35.087Z,1.63
2017-09-09T15:59:01.440Z,2.27
2017-09-09T16:01:27.783Z,1.77
2017-09-09T16:03:54.196Z,1.43
2017-09-09T16:06:20.564Z,2.40
2017-09-09T16:08:47.332Z,1.73
2017-09-09T16:11:14.458Z,1.10
2017-09-09T16:13:40.856Z,1.73
2017-09-09T16:16:22.164Z,3.90
2017-09-09T16:18:48.539Z,3.23
2017-09-09T16:21:14.909Z,2.23
2017-09-09T16:23:41.293Z,3.47
2017-09-09T16:26:08.432Z,1.40
2017-09-09T16:28:35.530Z,1.23
2017-09-09T16:31:01.889Z,1.40
2017-09-09T16:33:28.225Z,1.83
2017-09-09T16:35:54.600Z,1.70
2017-09-09T16:38:20.964Z,2.03
2017-09-09T16:40:47.346Z,4.13
2017-09-09T16:43:13.719Z,1.80
2017-09-09T16:45:40.145Z,3.77
2017-09-09T16:48:06.515Z,2.20
2017-09-09T16:50:33.604Z,2.43
2017-09-09T16:53:00.391Z,2.10
2017-09-09T16:55:26.746Z,6.73
2017-09-09T16:57:53.109Z,2.80
2017-09-09T17:00:19.497Z,2.03
2017-09-09T17:02:45.850Z,2.57
2017-09-09T17:05:12.298Z,3.20
2017-09-09T17:07:38.729Z,3.07
2017-09-09T17:10:05.179Z,2.63
2017-09-09T17:12:31.604Z,3.07
2017-09-09T17:14:58.362Z,4.33
2017-09-09T17:17:24.769Z,2.53
2017-09-09T17:19:51.145Z,2.50
2017-09-09T17:22:18.241Z,3.83
2017-09-09T17:24:44.611Z,2.10
2017-09-09T17:27:11.757Z,3.10
2017-09-09T17:29:38.123Z,3.60
2017-09-09T17:32:04.509Z,4.73
2017-09-09T17:34:30.895Z,3.47
2017-09-09T17:36:57.295Z,3.20
2017-09-09T17:39:23.652Z,8.33
2017-09-09T17:41:50.352Z,4.57
2017-09-09T17:44:16.742Z,3.60
2017-09-09T17:46:43.117Z,2.80
2017-09-09T17:49:09.571Z,4.20
2017-09-09T17:51:35.952Z,3.53
2017-09-09T17:54:02.351Z,5.07
2017-09-09T17:56:28.696Z,2.73
2017-09-09T17:58:55.111Z,3.27
2017-09-09T18:01:21.454Z,5.57
2017-09-09T18:03:47.826Z,3.60
2017-09-09T18:06:14.953Z,2.67
2017-09-09T18:08:41.371Z,3.07
2017-09-09T18:11:07.765Z,3.83
2017-09-09T18:13:34.406Z,6.10
2017-09-09T18:16:00.845Z,3.00
2017-09-09T18:18:27.222Z,5.97
2017-09-09T18:20:54.383Z,4.93
2017-09-09T18:23:21.503Z,4.80
2017-09-09T18:25:47.864Z,5.03
2017-09-09T18:28:14.288Z,4.07
2017-09-09T18:30:41.415Z,3.70
2017-09-09T18:33:08.568Z,6.53
2017-09-09T18:35:36.031Z,4.00
2017-09-09T18:38:03.171Z,3.87
2017-09-09T18:40:30.353Z,5.00
2017-09-09T18:42:56.742Z,8.03
2017-09-09T18:45:23.902Z,4.07
2017-09-09T18:47:51.089Z,4.90
2017-09-09T18:50:17.518Z,4.23
2017-09-09T18:52:43.910Z,4.37
2017-09-09T18:55:11.047Z,5.80
2017-09-09T18:57:37.458Z,4.87
2017-09-09T19:00:03.952Z,3.90
2017-09-09T19:02:30.758Z,4.93
2017-09-09T19:04:57.183Z,4.40
2017-09-09T19:07:23.619Z,3.07
2017-09-09T19:09:50.023Z,5.57
2017-09-09T19:12:16.384Z,3.50
2017-09-09T19:14:42.819Z,5.90
2017-09-09T19:17:09.945Z,4.50
2017-09-09T19:19:36.374Z,6.73
2017-09-09T19:22:02.787Z,6.70
2017-09-09T19:24:29.433Z,5.87
2017-09-09T19:26:55.813Z,7.23
2017-09-09T19:29:22.280Z,8.90
2017-09-09T19:31:48.702Z,7.90
2017-09-09T19:34:15.073Z,6.70
2017-09-09T19:36:41.464Z,8.63
2017-09-09T19:39:07.865Z,3.93
2017-09-09T19:41:34.303Z,7.10
2017-09-09T19:44:00.656Z,6.50
2017-09-09T19:46:27.454Z,7.77
2017-09-09T19:48:53.932Z,9.70
2017-09-09T19:51:20.327Z,9.47
2017-09-09T19:53:46.750Z,9.60
2017-09-09T19:56:13.853Z,6.63
2017-09-09T19:58:40.212Z,6.13
2017-09-09T20:01:06.575Z,6.37
2017-09-09T20:03:32.994Z,10.70
2017-09-09T20:05:59.370Z,6.07
2017-09-09T20:08:25.801Z,8.67
2017-09-09T20:10:52.219Z,7.70
2017-09-09T20:13:18.628Z,7.40
2017-09-09T20:15:45.043Z,6.43
2017-09-09T20:18:11.471Z,6.17
2017-09-09T20:20:37.927Z,6.73
2017-09-09T20:23:04.352Z,7.33
2017-09-09T20:25:30.789Z,7.03
2017-09-09T20:27:57.223Z,6.67
2017-09-09T20:30:23.571Z,4.90
2017-09-09T20:32:49.972Z,6.27
2017-09-09T20:35:16.670Z,6.40
2017-09-09T20:37:43.037Z,6.20
2017-09-09T20:40:09.409Z,8.30
2017-09-09T20:42:35.786Z,6.53
2017-09-09T20:45:02.193Z,6.63
2017-09-09T20:47:29.397Z,4.40
2017-09-09T20:49:55.774Z,5.83
2017-09-09T20:52:22.980Z,6.53
2017-09-09T20:54:49.448Z,6.83
2017-09-09T20:57:15.858Z,7.30
2017-09-09T20:59:42.269Z,6.13
2017-09-09T21:02:08.680Z,4.17
2017-09-09T21:04:35.111Z,6.67
2017-09-09T21:07:01.821Z,7.00
2017-09-09T21:09:28.190Z,6.60
2017-09-09T21:11:54.636Z,5.50
2017-09-09T21:14:21.050Z,5.30
2017-09-09T21:16:47.407Z,5.70
2017-09-09T21:19:13.831Z,6.10
2017-09-09T21:21:40.177Z,13.00
2017-09-09T21:24:06.827Z,5.37
2017-09-09T21:26:33.989Z,7.47
2017-09-09T21:29:01.144Z,8.93
2017-09-09T21:31:27.505Z,8.50
2017-09-09T21:33:53.873Z,7.63
2017-09-09T21:36:20.289Z,5.10
2017-09-09T21:38:46.682Z,5.90
2017-09-09T21:41:13.113Z,7.50
2017-09-09T21:43:39.519Z,6.17
2017-09-09T21:46:06.254Z,9.77
2017-09-09T21:48:32.749Z,4.80
2017-09-09T21:50:59.101Z,5.53
2017-09-09T21:53:25.521Z,4.90
2017-09-09T21:55:51.855Z,9.67
2017-09-09T21:58:18.987Z,7.63
2017-09-09T22:00:45.361Z,9.57
2017-09-09T22:03:12.922Z,8.47
2017-09-09T22:05:39.352Z,6.07
2017-09-09T22:08:06.470Z,4.90
2017-09-09T22:10:32.859Z,6.13
2017-09-09T22:12:59.251Z,6.80
2017-09-09T22:15:26.420Z,9.13
2017-09-09T22:17:52.807Z,3.90
2017-09-09T22:20:19.185Z,6.87
2017-09-09T22:22:45.529Z,7.07
2017-09-09T22:25:11.937Z,4.93
2017-09-09T22:27:38.302Z,7.30
2017-09-09T22:30:05.082Z,7.57
2017-09-09T22:32:32.200Z,7.43
2017-09-09T22:34:58.569Z,8.73
2017-09-09T22:37:24.972Z,5.77
2017-09-09T22:39:51.337Z,4.63
2017-09-09T22:42:17.737Z,5.50
2017-09-09T22:44:44.082Z,8.00
2017-09-09T22:47:11.236Z,6.20
2017-09-09T22:49:37.689Z,6.90
2017-09-09T22:52:04.064Z,5.50
2017-09-09T22:54:30.482Z,5.77
2017-09-09T22:56:57.162Z,16.83
2017-09-09T22:59:24.297Z,7.53
2017-09-09T23:01:50.688Z,5.93
2017-09-09T23:04:17.069Z,6.33
2017-09-09T23:06:44.186Z,7.27
2017-09-09T23:09:10.583Z,9.53
2017-09-09T23:11:36.995Z,6.03
2017-09-09T23:14:03.393Z,8.33
2017-09-09T23:16:29.759Z,9.37
2017-09-09T23:18:56.114Z,7.70
2017-09-09T23:21:22.468Z,5.50
2017-09-09T23:23:48.832Z,8.83
2017-09-09T23:26:15.956Z,8.60
2017-09-09T23:28:42.306Z,8.00
2017-09-09T23:31:09.418Z,8.20
2017-09-09T23:33:35.815Z,4.97
2017-09-09T23:36:02.513Z,5.60
2017-09-09T23:38:29.602Z,6.63
2017-09-09T23:40:55.960Z,8.97
2017-09-09T23:43:22.346Z,7.40
2017-09-09T23:45:48.700Z,6.20
2017-09-09T23:48:15.134Z,6.00
2017-09-09T23:50:41.492Z,7.70
2017-09-09T23:53:07.834Z,6.77
2017-09-09T23:55:34.193Z,7.10
2017-09-09T23:58:00.902Z,7.23
